sensor_id;sensor_type;location;lat;lon;timestamp;temperature;humidity
2054;DHT22;1032;52.542;13.440;2023-02-28T00:00:37;3.60;99.90
2054;DHT22;1032;52.542;13.440;2023-02-28T00:03:04;3.50;99.90
2054;DHT22;1032;52.542;13.440;2023-02-28T00:05:31;3.80;99.90
2054;DHT22;1032;52.542;13.440;2023-02-28T00:07:57;3.60;99.90
2054;DHT22;1032;52.542;13.440;2023-02-28T00:10:26;3.50;99.90
2054;DHT22;1032;52.542;13.440;2023-02-28T00:12:58;3.60;99.90
2054;DHT22;1032;52.542;13.440;2023-02-28T00:15:26;3.10;99.90
2054;DHT22;1032;52.542;13.440;2023-02-28T00:17:52;3.60;99.90
2054;DHT22;1032;52.542;13.440;2023-02-28T00:20:20;3.50;99.90
2054;DHT22;1032;52.542;13.440;2023-02-28T00:22:48;3.60;99.90
2054;DHT22;1032;52.542;13.440;2023-02-28T00:25:17;3.50;99.90
2054;DHT22;1032;52.542;13.440;2023-02-28T00:27:45;3.60;99.90
2054;DHT22;1032;52.542;13.440;2023-02-28T00:30:15;3.60;99.90
2054;DHT22;1032;52.542;13.440;2023-02-28T00:32:42;3.50;99.90
2054;DHT22;1032;52.542;13.440;2023-02-28T00:35:09;3.70;99.90
2054;DHT22;1032;52.542;13.440;2023-02-28T00:37:37;3.70;99.90
2054;DHT22;1032;52.542;13.440;2023-02-28T00:40:05;3.40;99.90
2054;DHT22;1032;52.542;13.440;2023-02-28T00:42:33;3.70;99.90
2054;DHT22;1032;52.542;13.440;2023-02-28T00:45:00;3.60;99.90
2054;DHT22;1032;52.542;13.440;2023-02-28T00:47:28;3.60;99.90
2054;DHT22;1032;52.542;13.440;2023-02-28T00:49:55;3.60;99.90
2054;DHT22;1032;52.542;13.440;2023-02-28T00:52:21;3.50;99.90
2054;DHT22;1032;52.542;13.440;2023-02-28T00:54:48;3.70;99.90
2054;DHT22;1032;52.542;13.440;2023-02-28T00:57:15;3.60;99.90
2054;DHT22;1032;52.542;13.440;2023-02-28T00:59:41;3.80;99.90
2054;DHT22;1032;52.542;13.440;2023-02-28T01:02:08;3.50;99.90
2054;DHT22;1032;52.542;13.440;2023-02-28T01:04:37;3.60;99.90
2054;DHT22;1032;52.542;13.440;2023-02-28T01:07:04;3.10;99.90
2054;DHT22;1032;52.542;13.440;2023-02-28T01:09:31;3.50;99.90
2054;DHT22;1032;52.542;13.440;2023-02-28T01:11:57;3.60;99.90
2054;DHT22;1032;52.542;13.440;2023-02-28T01:14:24;2.70;99.90
2054;DHT22;1032;52.542;13.440;2023-02-28T01:16:51;3.50;99.90
2054;DHT22;1032;52.542;13.440;2023-02-28T01:19:18;3.50;99.90
2054;DHT22;1032;52.542;13.440;2023-02-28T01:21:47;3.50;99.90
2054;DHT22;1032;52.542;13.440;2023-02-28T01:24:13;3.30;99.90
2054;DHT22;1032;52.542;13.440;2023-02-28T01:26:40;2.80;99.90
2054;DHT22;1032;52.542;13.440;2023-02-28T01:29:07;3.40;99.90
2054;DHT22;1032;52.542;13.440;2023-02-28T01:31:34;3.30;99.90
2054;DHT22;1032;52.542;13.440;2023-02-28T01:34:00;3.10;99.90
2054;DHT22;1032;52.542;13.440;2023-02-28T01:36:28;3.20;99.90
2054;DHT22;1032;52.542;13.440;2023-02-28T01:38:56;3.20;99.90
2054;DHT22;1032;52.542;13.440;2023-02-28T01:41:24;3.20;99.90
2054;DHT22;1032;52.542;13.440;2023-02-28T01:43:59;3.20;99.90
2054;DHT22;1032;52.542;13.440;2023-02-28T01:46:29;2.70;99.90
2054;DHT22;1032;52.542;13.440;2023-02-28T01:49:01;3.10;99.90
2054;DHT22;1032;52.542;13.440;2023-02-28T01:51:36;3.30;99.90
2054;DHT22;1032;52.542;13.440;2023-02-28T01:54:08;3.00;99.90
2054;DHT22;1032;52.542;13.440;2023-02-28T01:56:43;3.20;99.90
2054;DHT22;1032;52.542;13.440;2023-02-28T01:59:12;3.20;99.90
2054;DHT22;1032;52.542;13.440;2023-02-28T02:01:40;3.30;99.90
2054;DHT22;1032;52.542;13.440;2023-02-28T02:04:06;3.10;99.90
2054;DHT22;1032;52.542;13.440;2023-02-28T02:06:36;2.60;99.90
2054;DHT22;1032;52.542;13.440;2023-02-28T02:09:06;3.10;99.90
2054;DHT22;1032;52.542;13.440;2023-02-28T02:11:34;2.90;99.90
2054;DHT22;1032;52.542;13.440;2023-02-28T02:14:24;2.90;99.90
2054;DHT22;1032;52.542;13.440;2023-02-28T02:17:06;3.00;99.90
2054;DHT22;1032;52.542;13.440;2023-02-28T02:25:53;2.90;99.90
2054;DHT22;1032;52.542;13.440;2023-02-28T02:28:56;2.70;99.90
2054;DHT22;1032;52.542;13.440;2023-02-28T02:31:46;2.60;99.90
2054;DHT22;1032;52.542;13.440;2023-02-28T02:37:19;2.60;99.90
2054;DHT22;1032;52.542;13.440;2023-02-28T02:39:51;2.00;99.90
2054;DHT22;1032;52.542;13.440;2023-02-28T02:42:24;2.50;99.90
2054;DHT22;1032;52.542;13.440;2023-02-28T02:44:59;2.20;99.90
2054;DHT22;1032;52.542;13.440;2023-02-28T02:47:30;2.50;99.90
2054;DHT22;1032;52.542;13.440;2023-02-28T02:50:02;2.40;99.90
2054;DHT22;1032;52.542;13.440;2023-02-28T02:52:37;2.20;99.90
2054;DHT22;1032;52.542;13.440;2023-02-28T02:55:07;2.60;99.90
2054;DHT22;1032;52.542;13.440;2023-02-28T02:57:40;2.10;99.90
2054;DHT22;1032;52.542;13.440;2023-02-28T03:00:10;2.00;99.90
2054;DHT22;1032;52.542;13.440;2023-02-28T03:02:38;2.20;99.90
2054;DHT22;1032;52.542;13.440;2023-02-28T03:05:13;2.00;99.90
2054;DHT22;1032;52.542;13.440;2023-02-28T03:07:41;2.20;99.90
2054;DHT22;1032;52.542;13.440;2023-02-28T03:10:30;2.00;99.90
2054;DHT22;1032;52.542;13.440;2023-02-28T03:13:10;2.10;99.90
2054;DHT22;1032;52.542;13.440;2023-02-28T03:15:49;2.10;99.90
2054;DHT22;1032;52.542;13.440;2023-02-28T03:18:24;2.00;99.90
2054;DHT22;1032;52.542;13.440;2023-02-28T03:20:59;2.10;99.90
2054;DHT22;1032;52.542;13.440;2023-02-28T03:23:35;1.90;99.90
2054;DHT22;1032;52.542;13.440;2023-02-28T03:26:07;1.80;99.90
2054;DHT22;1032;52.542;13.440;2023-02-28T03:28:42;2.00;99.90
2054;DHT22;1032;52.542;13.440;2023-02-28T03:31:16;1.60;99.90
2054;DHT22;1032;52.542;13.440;2023-02-28T03:33:48;2.00;99.90
2054;DHT22;1032;52.542;13.440;2023-02-28T03:36:25;1.10;99.90
2054;DHT22;1032;52.542;13.440;2023-02-28T03:38:56;1.70;99.90
2054;DHT22;1032;52.542;13.440;2023-02-28T03:41:27;1.80;99.90
2054;DHT22;1032;52.542;13.440;2023-02-28T03:43:59;1.50;99.90
2054;DHT22;1032;52.542;13.440;2023-02-28T03:46:31;1.60;99.90
2054;DHT22;1032;52.542;13.440;2023-02-28T03:49:02;1.70;99.90
2054;DHT22;1032;52.542;13.440;2023-02-28T03:51:33;1.20;99.90
2054;DHT22;1032;52.542;13.440;2023-02-28T03:54:05;1.70;99.90
2054;DHT22;1032;52.542;13.440;2023-02-28T03:56:38;1.50;99.90
2054;DHT22;1032;52.542;13.440;2023-02-28T03:59:09;1.60;99.90
2054;DHT22;1032;52.542;13.440;2023-02-28T04:01:40;1.50;99.90
2054;DHT22;1032;52.542;13.440;2023-02-28T04:04:08;1.50;99.90
2054;DHT22;1032;52.542;13.440;2023-02-28T04:06:37;1.60;99.90
2054;DHT22;1032;52.542;13.440;2023-02-28T04:09:05;1.00;99.90
2054;DHT22;1032;52.542;13.440;2023-02-28T04:11:34;1.20;99.90
2054;DHT22;1032;52.542;13.440;2023-02-28T04:14:01;1.40;99.90
2054;DHT22;1032;52.542;13.440;2023-02-28T04:16:28;1.50;99.90
2054;DHT22;1032;52.542;13.440;2023-02-28T04:18:55;1.40;99.90
2054;DHT22;1032;52.542;13.440;2023-02-28T04:21:27;1.50;99.90
2054;DHT22;1032;52.542;13.440;2023-02-28T04:23:55;0.60;99.90
2054;DHT22;1032;52.542;13.440;2023-02-28T04:26:27;1.00;99.90
2054;DHT22;1032;52.542;13.440;2023-02-28T04:28:55;1.10;99.90
2054;DHT22;1032;52.542;13.440;2023-02-28T04:31:21;1.10;99.90
2054;DHT22;1032;52.542;13.440;2023-02-28T04:33:48;1.10;99.90
2054;DHT22;1032;52.542;13.440;2023-02-28T04:36:15;1.10;99.90
2054;DHT22;1032;52.542;13.440;2023-02-28T04:38:43;1.10;99.90
2054;DHT22;1032;52.542;13.440;2023-02-28T04:41:11;1.00;99.90
2054;DHT22;1032;52.542;13.440;2023-02-28T04:43:38;1.10;99.90
2054;DHT22;1032;52.542;13.440;2023-02-28T04:46:05;1.00;99.90
2054;DHT22;1032;52.542;13.440;2023-02-28T04:48:33;0.80;99.90
2054;DHT22;1032;52.542;13.440;2023-02-28T04:51:01;0.80;99.90
2054;DHT22;1032;52.542;13.440;2023-02-28T04:53:28;1.00;99.90
2054;DHT22;1032;52.542;13.440;2023-02-28T04:55:55;0.90;99.90
2054;DHT22;1032;52.542;13.440;2023-02-28T04:58:24;1.00;99.90
2054;DHT22;1032;52.542;13.440;2023-02-28T05:00:51;0.90;99.90
2054;DHT22;1032;52.542;13.440;2023-02-28T05:03:18;0.80;99.90
2054;DHT22;1032;52.542;13.440;2023-02-28T05:05:46;0.80;99.90
2054;DHT22;1032;52.542;13.440;2023-02-28T05:08:12;0.90;99.90
2054;DHT22;1032;52.542;13.440;2023-02-28T05:10:39;0.80;99.90
2054;DHT22;1032;52.542;13.440;2023-02-28T05:13:06;0.70;99.90
2054;DHT22;1032;52.542;13.440;2023-02-28T05:15:34;1.00;99.90
2054;DHT22;1032;52.542;13.440;2023-02-28T05:18:00;0.80;99.90
2054;DHT22;1032;52.542;13.440;2023-02-28T05:20:27;0.60;99.90
2054;DHT22;1032;52.542;13.440;2023-02-28T05:22:54;0.80;99.90
2054;DHT22;1032;52.542;13.440;2023-02-28T05:25:21;0.60;99.90
2054;DHT22;1032;52.542;13.440;2023-02-28T05:27:48;0.70;99.90
2054;DHT22;1032;52.542;13.440;2023-02-28T05:30:15;0.60;99.90
2054;DHT22;1032;52.542;13.440;2023-02-28T05:32:43;0.80;99.90
2054;DHT22;1032;52.542;13.440;2023-02-28T05:35:10;0.80;99.90
2054;DHT22;1032;52.542;13.440;2023-02-28T05:37:37;0.90;99.90
2054;DHT22;1032;52.542;13.440;2023-02-28T05:40:06;0.90;99.90
2054;DHT22;1032;52.542;13.440;2023-02-28T05:42:35;0.70;99.90
2054;DHT22;1032;52.542;13.440;2023-02-28T05:45:02;0.60;99.90
2054;DHT22;1032;52.542;13.440;2023-02-28T05:47:29;0.00;99.90
2054;DHT22;1032;52.542;13.440;2023-02-28T05:49:57;0.50;99.90
2054;DHT22;1032;52.542;13.440;2023-02-28T05:52:24;0.70;99.90
2054;DHT22;1032;52.542;13.440;2023-02-28T05:54:50;0.70;99.90
2054;DHT22;1032;52.542;13.440;2023-02-28T05:57:17;0.60;99.90
2054;DHT22;1032;52.542;13.440;2023-02-28T05:59:43;0.70;99.90
2054;DHT22;1032;52.542;13.440;2023-02-28T06:02:13;0.80;99.90
2054;DHT22;1032;52.542;13.440;2023-02-28T06:04:39;0.50;99.90
2054;DHT22;1032;52.542;13.440;2023-02-28T06:07:08;0.00;99.90
2054;DHT22;1032;52.542;13.440;2023-02-28T06:09:35;0.60;99.90
2054;DHT22;1032;52.542;13.440;2023-02-28T06:12:04;0.20;99.90
2054;DHT22;1032;52.542;13.440;2023-02-28T06:14:32;0.60;99.90
2054;DHT22;1032;52.542;13.440;2023-02-28T06:17:00;0.30;99.90
2054;DHT22;1032;52.542;13.440;2023-02-28T06:19:27;0.80;99.90
2054;DHT22;1032;52.542;13.440;2023-02-28T06:21:56;0.60;99.90
2054;DHT22;1032;52.542;13.440;2023-02-28T06:24:26;0.70;99.90
2054;DHT22;1032;52.542;13.440;2023-02-28T06:26:54;0.70;99.90
2054;DHT22;1032;52.542;13.440;2023-02-28T06:29:21;0.60;99.90
2054;DHT22;1032;52.542;13.440;2023-02-28T06:31:48;0.50;99.90
2054;DHT22;1032;52.542;13.440;2023-02-28T06:34:15;0.50;99.90
2054;DHT22;1032;52.542;13.440;2023-02-28T06:36:41;0.60;99.90
2054;DHT22;1032;52.542;13.440;2023-02-28T06:39:09;0.40;99.90
2054;DHT22;1032;52.542;13.440;2023-02-28T06:41:37;0.70;99.90
2054;DHT22;1032;52.542;13.440;2023-02-28T06:44:05;0.60;99.90
2054;DHT22;1032;52.542;13.440;2023-02-28T06:46:32;0.80;99.90
2054;DHT22;1032;52.542;13.440;2023-02-28T06:48:59;0.60;99.90
2054;DHT22;1032;52.542;13.440;2023-02-28T06:51:26;0.80;99.90
2054;DHT22;1032;52.542;13.440;2023-02-28T06:53:52;1.00;99.90
2054;DHT22;1032;52.542;13.440;2023-02-28T06:56:19;1.10;99.90
2054;DHT22;1032;52.542;13.440;2023-02-28T06:58:48;1.20;99.90
2054;DHT22;1032;52.542;13.440;2023-02-28T07:01:15;0.80;99.90
2054;DHT22;1032;52.542;13.440;2023-02-28T07:03:42;1.10;99.90
2054;DHT22;1032;52.542;13.440;2023-02-28T07:06:09;1.10;99.90
2054;DHT22;1032;52.542;13.440;2023-02-28T07:08:36;1.10;99.90
2054;DHT22;1032;52.542;13.440;2023-02-28T07:11:03;1.40;99.90
2054;DHT22;1032;52.542;13.440;2023-02-28T07:13:30;1.40;99.90
2054;DHT22;1032;52.542;13.440;2023-02-28T07:15:59;1.90;99.90
2054;DHT22;1032;52.542;13.440;2023-02-28T07:18:27;1.00;99.90
2054;DHT22;1032;52.542;13.440;2023-02-28T07:20:54;1.10;99.90
2054;DHT22;1032;52.542;13.440;2023-02-28T07:23:21;2.00;99.90
2054;DHT22;1032;52.542;13.440;2023-02-28T07:25:49;1.50;99.90
2054;DHT22;1032;52.542;13.440;2023-02-28T07:28:16;1.60;99.90
2054;DHT22;1032;52.542;13.440;2023-02-28T07:30:43;1.50;99.90
2054;DHT22;1032;52.542;13.440;2023-02-28T07:33:11;1.60;99.90
2054;DHT22;1032;52.542;13.440;2023-02-28T07:35:37;1.70;99.90
2054;DHT22;1032;52.542;13.440;2023-02-28T07:38:04;1.70;99.90
2054;DHT22;1032;52.542;13.440;2023-02-28T07:40:33;1.60;99.90
2054;DHT22;1032;52.542;13.440;2023-02-28T07:43:00;1.70;99.90
2054;DHT22;1032;52.542;13.440;2023-02-28T07:45:27;2.00;99.90
2054;DHT22;1032;52.542;13.440;2023-02-28T07:47:55;2.10;99.90
2054;DHT22;1032;52.542;13.440;2023-02-28T07:50:23;1.90;99.90
2054;DHT22;1032;52.542;13.440;2023-02-28T07:52:50;2.00;99.90
2054;DHT22;1032;52.542;13.440;2023-02-28T07:55:17;2.20;99.90
2054;DHT22;1032;52.542;13.440;2023-02-28T07:57:43;1.90;99.90
2054;DHT22;1032;52.542;13.440;2023-02-28T08:00:11;2.10;99.90
2054;DHT22;1032;52.542;13.440;2023-02-28T08:02:39;2.20;99.90
2054;DHT22;1032;52.542;13.440;2023-02-28T08:05:07;2.30;99.90
2054;DHT22;1032;52.542;13.440;2023-02-28T08:07:35;2.30;99.90
2054;DHT22;1032;52.542;13.440;2023-02-28T08:10:01;2.50;99.90
2054;DHT22;1032;52.542;13.440;2023-02-28T08:12:28;2.40;99.90
2054;DHT22;1032;52.542;13.440;2023-02-28T08:14:55;2.90;99.90
2054;DHT22;1032;52.542;13.440;2023-02-28T08:17:22;2.60;99.90
2054;DHT22;1032;52.542;13.440;2023-02-28T08:19:49;2.50;99.90
2054;DHT22;1032;52.542;13.440;2023-02-28T08:22:15;2.80;99.90
2054;DHT22;1032;52.542;13.440;2023-02-28T08:24:44;3.10;99.90
2054;DHT22;1032;52.542;13.440;2023-02-28T08:27:10;2.90;99.90
2054;DHT22;1032;52.542;13.440;2023-02-28T08:29:37;3.00;99.90
2054;DHT22;1032;52.542;13.440;2023-02-28T08:32:04;3.10;99.90
2054;DHT22;1032;52.542;13.440;2023-02-28T08:34:31;3.30;99.90
2054;DHT22;1032;52.542;13.440;2023-02-28T08:36:57;3.10;99.00
2054;DHT22;1032;52.542;13.440;2023-02-28T08:39:24;3.30;98.30
2054;DHT22;1032;52.542;13.440;2023-02-28T08:41:52;3.00;97.80
2054;DHT22;1032;52.542;13.440;2023-02-28T08:44:19;3.20;96.50
2054;DHT22;1032;52.542;13.440;2023-02-28T08:46:45;2.90;96.60
2054;DHT22;1032;52.542;13.440;2023-02-28T08:49:12;3.20;96.20
2054;DHT22;1032;52.542;13.440;2023-02-28T08:51:39;3.40;95.40
2054;DHT22;1032;52.542;13.440;2023-02-28T08:54:05;3.30;94.80
2054;DHT22;1032;52.542;13.440;2023-02-28T08:56:32;3.50;94.00
2054;DHT22;1032;52.542;13.440;2023-02-28T08:59:00;3.50;93.90
2054;DHT22;1032;52.542;13.440;2023-02-28T09:01:28;3.60;93.40
2054;DHT22;1032;52.542;13.440;2023-02-28T09:03:56;3.40;92.90
2054;DHT22;1032;52.542;13.440;2023-02-28T09:06:26;3.60;93.10
2054;DHT22;1032;52.542;13.440;2023-02-28T09:08:53;3.10;92.40
2054;DHT22;1032;52.542;13.440;2023-02-28T09:11:23;3.60;92.50
2054;DHT22;1032;52.542;13.440;2023-02-28T09:13:50;3.60;92.20
2054;DHT22;1032;52.542;13.440;2023-02-28T09:16:18;3.50;91.60
2054;DHT22;1032;52.542;13.440;2023-02-28T09:18:45;3.60;92.20
2054;DHT22;1032;52.542;13.440;2023-02-28T09:21:14;3.60;91.80
2054;DHT22;1032;52.542;13.440;2023-02-28T09:23:42;3.60;91.80
2054;DHT22;1032;52.542;13.440;2023-02-28T09:26:13;3.50;91.70
2054;DHT22;1032;52.542;13.440;2023-02-28T09:28:41;3.80;91.40
2054;DHT22;1032;52.542;13.440;2023-02-28T09:31:12;3.60;91.00
2054;DHT22;1032;52.542;13.440;2023-02-28T09:33:40;3.70;91.40
2054;DHT22;1032;52.542;13.440;2023-02-28T09:36:07;3.80;91.10
2054;DHT22;1032;52.542;13.440;2023-02-28T09:38:34;3.60;90.70
2054;DHT22;1032;52.542;13.440;2023-02-28T09:41:03;4.00;90.70
2054;DHT22;1032;52.542;13.440;2023-02-28T09:43:34;3.90;90.50
2054;DHT22;1032;52.542;13.440;2023-02-28T09:46:14;3.60;90.50
2054;DHT22;1032;52.542;13.440;2023-02-28T09:48:47;3.80;90.00
2054;DHT22;1032;52.542;13.440;2023-02-28T09:51:27;4.10;89.80
2054;DHT22;1032;52.542;13.440;2023-02-28T09:53:56;4.00;90.00
2054;DHT22;1032;52.542;13.440;2023-02-28T09:56:27;3.90;89.90
2054;DHT22;1032;52.542;13.440;2023-02-28T09:58:58;3.80;88.60
2054;DHT22;1032;52.542;13.440;2023-02-28T10:01:33;3.90;88.70
2054;DHT22;1032;52.542;13.440;2023-02-28T10:04:10;4.60;86.90
2054;DHT22;1032;52.542;13.440;2023-02-28T10:06:44;4.10;88.10
2054;DHT22;1032;52.542;13.440;2023-02-28T10:09:14;3.90;86.80
2054;DHT22;1032;52.542;13.440;2023-02-28T10:11:44;3.90;86.80
2054;DHT22;1032;52.542;13.440;2023-02-28T10:14:14;4.20;87.80
2054;DHT22;1032;52.542;13.440;2023-02-28T10:16:44;3.80;86.10
2054;DHT22;1032;52.542;13.440;2023-02-28T10:19:21;4.10;86.60
2054;DHT22;1032;52.542;13.440;2023-02-28T10:21:53;3.90;86.50
2054;DHT22;1032;52.542;13.440;2023-02-28T10:24:26;4.10;86.40
2054;DHT22;1032;52.542;13.440;2023-02-28T10:27:00;3.60;85.20
2054;DHT22;1032;52.542;13.440;2023-02-28T10:29:27;4.00;85.20
2054;DHT22;1032;52.542;13.440;2023-02-28T10:31:58;4.00;85.30
2054;DHT22;1032;52.542;13.440;2023-02-28T10:34:28;3.70;84.90
2054;DHT22;1032;52.542;13.440;2023-02-28T10:36:55;4.10;85.50
2054;DHT22;1032;52.542;13.440;2023-02-28T10:39:37;4.40;85.20
2054;DHT22;1032;52.542;13.440;2023-02-28T10:42:05;4.10;84.90
2054;DHT22;1032;52.542;13.440;2023-02-28T10:44:32;4.20;84.90
2054;DHT22;1032;52.542;13.440;2023-02-28T10:46:58;4.70;86.20
2054;DHT22;1032;52.542;13.440;2023-02-28T10:49:27;4.20;85.40
2054;DHT22;1032;52.542;13.440;2023-02-28T10:51:57;4.50;84.30
2054;DHT22;1032;52.542;13.440;2023-02-28T10:54:28;4.40;84.30
2054;DHT22;1032;52.542;13.440;2023-02-28T10:57:23;4.30;84.50
2054;DHT22;1032;52.542;13.440;2023-02-28T10:59:51;4.50;82.90
2054;DHT22;1032;52.542;13.440;2023-02-28T11:02:33;4.90;82.90
2054;DHT22;1032;52.542;13.440;2023-02-28T11:05:00;4.80;82.60
2054;DHT22;1032;52.542;13.440;2023-02-28T11:07:28;4.90;82.50
2054;DHT22;1032;52.542;13.440;2023-02-28T11:09:56;4.90;82.80
2054;DHT22;1032;52.542;13.440;2023-02-28T11:12:27;4.70;82.40
2054;DHT22;1032;52.542;13.440;2023-02-28T11:14:57;4.50;82.20
2054;DHT22;1032;52.542;13.440;2023-02-28T11:17:26;4.70;81.90
2054;DHT22;1032;52.542;13.440;2023-02-28T11:19:56;4.40;81.50
2054;DHT22;1032;52.542;13.440;2023-02-28T11:22:26;4.60;81.40
2054;DHT22;1032;52.542;13.440;2023-02-28T11:24:57;4.50;81.90
2054;DHT22;1032;52.542;13.440;2023-02-28T11:27:42;4.60;81.90
2054;DHT22;1032;52.542;13.440;2023-02-28T11:30:26;4.60;82.20
2054;DHT22;1032;52.542;13.440;2023-02-28T11:32:53;4.80;82.00
2054;DHT22;1032;52.542;13.440;2023-02-28T11:35:24;4.60;82.20
2054;DHT22;1032;52.542;13.440;2023-02-28T11:37:53;4.80;82.90
2054;DHT22;1032;52.542;13.440;2023-02-28T11:40:30;4.60;82.50
2054;DHT22;1032;52.542;13.440;2023-02-28T11:43:05;4.40;81.20
2054;DHT22;1032;52.542;13.440;2023-02-28T11:45:44;5.00;82.60
2054;DHT22;1032;52.542;13.440;2023-02-28T11:48:18;5.00;81.70
2054;DHT22;1032;52.542;13.440;2023-02-28T11:51:04;5.00;81.90
2054;DHT22;1032;52.542;13.440;2023-02-28T11:53:49;4.80;81.60
2054;DHT22;1032;52.542;13.440;2023-02-28T11:56:23;5.10;82.50
2054;DHT22;1032;52.542;13.440;2023-02-28T11:58:59;5.00;82.20
2054;DHT22;1032;52.542;13.440;2023-02-28T12:01:40;5.00;82.10
2054;DHT22;1032;52.542;13.440;2023-02-28T12:04:17;4.80;81.80
2054;DHT22;1032;52.542;13.440;2023-02-28T12:06:52;5.00;81.20
2054;DHT22;1032;52.542;13.440;2023-02-28T12:09:44;4.60;80.60
2054;DHT22;1032;52.542;13.440;2023-02-28T12:12:23;5.20;81.10
2054;DHT22;1032;52.542;13.440;2023-02-28T12:15:12;5.00;81.40
2054;DHT22;1032;52.542;13.440;2023-02-28T12:17:55;5.20;81.20
2054;DHT22;1032;52.542;13.440;2023-02-28T12:20:30;5.20;80.80
2054;DHT22;1032;52.542;13.440;2023-02-28T12:23:26;5.10;80.60
2054;DHT22;1032;52.542;13.440;2023-02-28T12:26:07;5.20;80.50
2054;DHT22;1032;52.542;13.440;2023-02-28T12:28:42;4.90;80.10
2054;DHT22;1032;52.542;13.440;2023-02-28T12:31:17;5.00;80.00
2054;DHT22;1032;52.542;13.440;2023-02-28T12:33:48;5.30;80.20
2054;DHT22;1032;52.542;13.440;2023-02-28T12:36:19;5.30;80.00
2054;DHT22;1032;52.542;13.440;2023-02-28T12:38:50;5.30;79.30
2054;DHT22;1032;52.542;13.440;2023-02-28T12:41:20;5.20;79.30
2054;DHT22;1032;52.542;13.440;2023-02-28T12:43:56;5.10;78.90
2054;DHT22;1032;52.542;13.440;2023-02-28T12:46:30;4.70;77.70
2054;DHT22;1032;52.542;13.440;2023-02-28T12:49:02;5.30;78.40
2054;DHT22;1032;52.542;13.440;2023-02-28T12:51:31;5.20;78.00
2054;DHT22;1032;52.542;13.440;2023-02-28T12:54:04;4.70;77.80
2054;DHT22;1032;52.542;13.440;2023-02-28T12:56:40;5.40;78.30
2054;DHT22;1032;52.542;13.440;2023-02-28T12:59:15;5.30;78.60
2054;DHT22;1032;52.542;13.440;2023-02-28T13:02:27;5.20;78.30
2054;DHT22;1032;52.542;13.440;2023-02-28T13:05:06;5.20;78.70
2054;DHT22;1032;52.542;13.440;2023-02-28T13:07:58;5.10;78.80
2054;DHT22;1032;52.542;13.440;2023-02-28T13:10:39;5.30;78.10
2054;DHT22;1032;52.542;13.440;2023-02-28T13:13:06;5.30;78.50
2054;DHT22;1032;52.542;13.440;2023-02-28T13:15:41;5.50;78.80
2054;DHT22;1032;52.542;13.440;2023-02-28T13:18:32;5.80;77.10
2054;DHT22;1032;52.542;13.440;2023-02-28T13:21:01;5.70;76.70
2054;DHT22;1032;52.542;13.440;2023-02-28T13:23:39;5.60;76.80
2054;DHT22;1032;52.542;13.440;2023-02-28T13:26:06;6.10;76.10
2054;DHT22;1032;52.542;13.440;2023-02-28T13:29:21;5.20;75.60
2054;DHT22;1032;52.542;13.440;2023-02-28T13:32:20;5.50;76.40
2054;DHT22;1032;52.542;13.440;2023-02-28T13:35:37;6.00;76.00
2054;DHT22;1032;52.542;13.440;2023-02-28T13:44:05;5.90;76.90
2054;DHT22;1032;52.542;13.440;2023-02-28T13:46:35;5.80;76.20
2054;DHT22;1032;52.542;13.440;2023-02-28T13:49:20;5.60;75.80
2054;DHT22;1032;52.542;13.440;2023-02-28T13:51:52;5.40;75.60
2054;DHT22;1032;52.542;13.440;2023-02-28T13:54:30;5.60;76.40
2054;DHT22;1032;52.542;13.440;2023-02-28T13:57:12;5.70;76.90
2054;DHT22;1032;52.542;13.440;2023-02-28T13:59:47;5.50;76.50
2054;DHT22;1032;52.542;13.440;2023-02-28T14:02:40;5.30;75.70
2054;DHT22;1032;52.542;13.440;2023-02-28T14:05:15;6.30;75.00
2054;DHT22;1032;52.542;13.440;2023-02-28T14:07:45;6.30;73.70
2054;DHT22;1032;52.542;13.440;2023-02-28T14:10:24;5.50;72.60
2054;DHT22;1032;52.542;13.440;2023-02-28T14:13:04;5.80;73.90
2054;DHT22;1032;52.542;13.440;2023-02-28T14:18:24;5.70;74.30
2054;DHT22;1032;52.542;13.440;2023-02-28T14:20:57;6.00;74.10
2054;DHT22;1032;52.542;13.440;2023-02-28T14:23:35;5.20;73.30
2054;DHT22;1032;52.542;13.440;2023-02-28T14:26:11;5.20;73.50
2054;DHT22;1032;52.542;13.440;2023-02-28T14:28:51;5.70;74.00
2054;DHT22;1032;52.542;13.440;2023-02-28T14:31:27;5.70;74.10
2054;DHT22;1032;52.542;13.440;2023-02-28T14:34:05;5.80;74.10
2054;DHT22;1032;52.542;13.440;2023-02-28T14:36:43;6.10;74.70
2054;DHT22;1032;52.542;13.440;2023-02-28T14:39:13;4.80;73.80
2054;DHT22;1032;52.542;13.440;2023-02-28T14:41:42;5.30;74.40
2054;DHT22;1032;52.542;13.440;2023-02-28T14:44:18;5.70;75.00
2054;DHT22;1032;52.542;13.440;2023-02-28T14:46:46;5.40;75.00
2054;DHT22;1032;52.542;13.440;2023-02-28T14:49:19;5.80;76.10
2054;DHT22;1032;52.542;13.440;2023-02-28T14:51:49;5.40;75.90
2054;DHT22;1032;52.542;13.440;2023-02-28T14:54:19;5.00;75.30
2054;DHT22;1032;52.542;13.440;2023-02-28T14:56:49;5.60;75.60
2054;DHT22;1032;52.542;13.440;2023-02-28T14:59:26;5.50;75.60
2054;DHT22;1032;52.542;13.440;2023-02-28T15:02:19;5.60;77.10
2054;DHT22;1032;52.542;13.440;2023-02-28T15:04:53;6.00;77.10
2054;DHT22;1032;52.542;13.440;2023-02-28T15:07:22;5.60;76.30
2054;DHT22;1032;52.542;13.440;2023-02-28T15:10:07;5.80;76.50
2054;DHT22;1032;52.542;13.440;2023-02-28T15:12:35;5.60;76.40
2054;DHT22;1032;52.542;13.440;2023-02-28T15:15:02;5.70;76.30
2054;DHT22;1032;52.542;13.440;2023-02-28T15:17:29;5.60;76.20
2054;DHT22;1032;52.542;13.440;2023-02-28T15:19:57;5.70;76.40
2054;DHT22;1032;52.542;13.440;2023-02-28T15:22:29;5.40;75.70
2054;DHT22;1032;52.542;13.440;2023-02-28T15:24:59;5.50;75.90
2054;DHT22;1032;52.542;13.440;2023-02-28T15:27:29;5.60;76.40
2054;DHT22;1032;52.542;13.440;2023-02-28T15:29:58;5.50;76.60
2054;DHT22;1032;52.542;13.440;2023-02-28T15:32:29;5.40;76.60
2054;DHT22;1032;52.542;13.440;2023-02-28T15:34:58;5.70;77.40
2054;DHT22;1032;52.542;13.440;2023-02-28T15:37:37;5.50;77.80
2054;DHT22;1032;52.542;13.440;2023-02-28T15:40:11;5.50;77.60
2054;DHT22;1032;52.542;13.440;2023-02-28T15:42:38;5.60;77.80
2054;DHT22;1032;52.542;13.440;2023-02-28T15:45:05;5.30;77.40
2054;DHT22;1032;52.542;13.440;2023-02-28T15:47:32;5.30;77.80
2054;DHT22;1032;52.542;13.440;2023-02-28T15:50:02;4.70;77.40
2054;DHT22;1032;52.542;13.440;2023-02-28T15:52:34;5.40;78.50
2054;DHT22;1032;52.542;13.440;2023-02-28T15:55:11;4.70;78.20
2054;DHT22;1032;52.542;13.440;2023-02-28T15:57:39;5.60;79.30
2054;DHT22;1032;52.542;13.440;2023-02-28T16:00:11;5.50;78.80
2054;DHT22;1032;52.542;13.440;2023-02-28T16:02:40;5.50;78.80
2054;DHT22;1032;52.542;13.440;2023-02-28T16:05:23;5.30;79.30
2054;DHT22;1032;52.542;13.440;2023-02-28T16:07:55;5.50;79.30
2054;DHT22;1032;52.542;13.440;2023-02-28T16:10:24;5.40;79.50
2054;DHT22;1032;52.542;13.440;2023-02-28T16:12:54;5.40;79.30
2054;DHT22;1032;52.542;13.440;2023-02-28T16:15:23;5.30;78.80
2054;DHT22;1032;52.542;13.440;2023-02-28T16:17:52;5.70;78.70
2054;DHT22;1032;52.542;13.440;2023-02-28T16:20:21;5.50;78.50
2054;DHT22;1032;52.542;13.440;2023-02-28T16:22:47;5.50;78.90
2054;DHT22;1032;52.542;13.440;2023-02-28T16:25:17;5.40;79.10
2054;DHT22;1032;52.542;13.440;2023-02-28T16:27:45;5.30;79.10
2054;DHT22;1032;52.542;13.440;2023-02-28T16:30:18;5.20;79.30
2054;DHT22;1032;52.542;13.440;2023-02-28T16:32:45;5.30;79.70
2054;DHT22;1032;52.542;13.440;2023-02-28T16:35:12;5.00;79.70
2054;DHT22;1032;52.542;13.440;2023-02-28T16:37:39;5.20;80.10
2054;DHT22;1032;52.542;13.440;2023-02-28T16:40:08;5.20;80.20
2054;DHT22;1032;52.542;13.440;2023-02-28T16:42:37;4.90;80.10
2054;DHT22;1032;52.542;13.440;2023-02-28T16:45:05;5.40;81.30